createdAt,value
2019-04-19T00:03:12.689Z,17.13
2019-04-19T00:07:23.935Z,15.23
2019-04-19T00:11:39.451Z,13.03
2019-04-19T00:15:41.491Z,13.50
2019-04-19T00:20:16.691Z,14.70
2019-04-19T00:24:01.635Z,12.47
2019-04-19T00:28:13.082Z,16.40
2019-04-19T00:32:34.892Z,15.40
2019-04-19T00:36:31.785Z,17.40
2019-04-19T00:41:05.282Z,16.40
2019-04-19T00:45:16.199Z,13.20
2019-04-19T00:49:15.962Z,13.73
2019-04-19T00:53:29.623Z,14.83
2019-04-19T00:57:36.451Z,19.23
2019-04-19T01:01:37.818Z,15.67
2019-04-19T01:05:54.008Z,15.90
2019-04-19T01:10:15.108Z,14.77
2019-04-19T01:14:21.565Z,20.93
2019-04-19T01:18:28.781Z,19.63
2019-04-19T01:22:30.125Z,16.30
2019-04-19T01:26:45.936Z,15.93
2019-04-19T01:30:49.341Z,17.53
2019-04-19T01:35:04.613Z,13.80
2019-04-19T01:39:23.198Z,14.63
2019-04-19T01:43:38.500Z,18.57
2019-04-19T01:47:51.390Z,19.60
2019-04-19T01:52:05.787Z,15.33
2019-04-19T01:56:03.845Z,26.93
2019-04-19T02:00:12.939Z,15.20
2019-04-19T02:04:24.651Z,18.63
2019-04-19T02:08:33.182Z,16.40
2019-04-19T02:12:49.643Z,15.30
2019-04-19T02:16:57.072Z,15.83
2019-04-19T02:21:02.318Z,18.57
2019-04-19T02:25:17.167Z,19.37
2019-04-19T02:29:25.432Z,23.23
2019-04-19T02:34:08.980Z,20.63
2019-04-19T02:38:03.746Z,25.43
2019-04-19T02:42:23.964Z,16.00
2019-04-19T02:46:32.692Z,19.00
2019-04-19T02:51:04.752Z,16.10
2019-04-19T02:55:00.294Z,20.80
2019-04-19T02:59:30.203Z,18.57
2019-04-19T03:03:23.056Z,17.10
2019-04-19T03:07:15.913Z,18.70
2019-04-19T03:11:45.833Z,16.37
2019-04-19T03:15:51.772Z,15.97
2019-04-19T03:20:02.523Z,19.63
2019-04-19T03:24:12.332Z,14.50
2019-04-19T03:28:15.403Z,18.77
2019-04-19T03:32:54.200Z,14.43
2019-04-19T03:36:42.597Z,17.43
2019-04-19T03:40:50.742Z,16.87
2019-04-19T03:45:09.740Z,14.50
2019-04-19T03:49:23.805Z,16.17
2019-04-19T03:53:34.729Z,12.50
2019-04-19T03:57:32.351Z,17.13
2019-04-19T04:01:37.583Z,15.10
2019-04-19T04:05:44.403Z,16.83
2019-04-19T04:09:57.474Z,14.33
2019-04-19T04:14:23.896Z,15.00
2019-04-19T04:18:23.783Z,13.80
2019-04-19T04:22:37.327Z,13.80
2019-04-19T04:26:52.856Z,19.47
2019-04-19T04:31:07.972Z,14.23
2019-04-19T04:35:19.397Z,16.00
2019-04-19T04:39:13.496Z,13.83
2019-04-19T04:43:37.029Z,15.27
2019-04-19T04:47:48.280Z,17.93
2019-04-19T04:52:14.119Z,15.07
2019-04-19T04:56:14.219Z,21.50
2019-04-19T05:00:30.770Z,14.50
2019-04-19T05:04:43.505Z,16.30
2019-04-19T05:08:59.940Z,15.93
2019-04-19T05:13:22.527Z,15.17
2019-04-19T05:21:40.221Z,20.80
2019-04-19T05:25:59.935Z,21.53
2019-04-19T05:29:51.602Z,16.73
2019-04-19T05:34:20.848Z,20.10
2019-04-19T05:38:35.304Z,19.63
2019-04-19T05:42:42.111Z,22.00
2019-04-19T05:47:06.238Z,17.70
2019-04-19T05:51:12.931Z,20.43
2019-04-19T05:54:53.782Z,15.33
2019-04-19T05:59:10.908Z,21.60
2019-04-19T06:03:19.779Z,19.37
2019-04-19T06:07:39.475Z,20.37
2019-04-19T06:11:37.639Z,20.37
2019-04-19T06:16:08.473Z,18.83
2019-04-19T06:20:11.179Z,16.20
2019-04-19T06:24:30.125Z,16.70
2019-04-19T06:28:43.921Z,22.27
2019-04-19T06:32:49.484Z,16.50
2019-04-19T06:36:37.605Z,21.30
2019-04-19T06:40:56.831Z,25.47
2019-04-19T06:45:17.505Z,20.60
2019-04-19T06:49:15.957Z,18.67
2019-04-19T06:53:21.000Z,21.27
2019-04-19T06:57:36.881Z,25.67
2019-04-19T07:01:47.308Z,20.40
2019-04-19T07:06:09.222Z,22.37
2019-04-19T07:10:35.238Z,23.13
2019-04-19T07:14:18.583Z,21.17
2019-04-19T07:18:33.825Z,17.57
2019-04-19T07:22:48.333Z,22.83
2019-04-19T07:27:00.385Z,40.83
2019-04-19T07:30:58.445Z,18.90
2019-04-19T07:35:13.516Z,20.30
2019-04-19T07:39:30.698Z,23.30
2019-04-19T07:43:51.323Z,19.67
2019-04-19T07:47:58.459Z,17.63
2019-04-19T07:52:09.072Z,20.07
2019-04-19T07:56:25.709Z,15.77
2019-04-19T08:00:52.379Z,15.73
2019-04-19T08:17:47.154Z,15.07
2019-04-19T08:30:03.099Z,17.33
2019-04-19T08:34:11.463Z,19.50
2019-04-19T08:38:22.391Z,19.40
2019-04-19T08:42:54.024Z,17.70
2019-04-19T08:46:57.884Z,16.57
2019-04-19T08:51:12.044Z,18.87
2019-04-19T08:55:43.090Z,15.47
2019-04-19T09:04:05.072Z,15.63
2019-04-19T09:08:10.386Z,13.87
2019-04-19T09:12:20.905Z,17.43
2019-04-19T09:16:32.620Z,14.98
2019-04-19T09:20:45.574Z,13.37
2019-04-19T09:24:51.831Z,17.03
2019-04-19T09:29:13.370Z,17.07
2019-04-19T09:33:00.282Z,13.97
2019-04-19T09:37:17.066Z,12.43
2019-04-19T09:41:27.042Z,13.83
2019-04-19T09:45:27.648Z,14.00
2019-04-19T09:50:06.655Z,15.73
2019-04-19T09:54:25.699Z,14.87
2019-04-19T09:58:31.936Z,13.90
2019-04-19T10:02:31.673Z,16.63
2019-04-19T10:06:36.806Z,11.47
2019-04-19T10:10:52.063Z,11.50
2019-04-19T10:15:00.551Z,14.10
2019-04-19T10:19:11.093Z,14.03
2019-04-19T10:23:19.815Z,13.47
2019-04-19T10:27:31.321Z,11.28
2019-04-19T10:31:45.299Z,11.43
2019-04-19T10:35:54.329Z,9.37
2019-04-19T10:40:03.964Z,10.57
2019-04-19T10:44:16.701Z,10.03
2019-04-19T10:48:23.111Z,8.90
2019-04-19T10:52:33.177Z,9.57
2019-04-19T10:56:52.408Z,11.63
2019-04-19T11:01:01.335Z,10.83
2019-04-19T11:05:11.183Z,7.93
2019-04-19T11:09:20.647Z,6.73
2019-04-19T11:13:38.117Z,10.03
2019-04-19T11:17:48.152Z,7.73
2019-04-19T11:21:57.245Z,8.37
2019-04-19T11:26:07.083Z,8.50
2019-04-19T11:30:17.451Z,6.50
2019-04-19T11:34:27.226Z,7.80
2019-04-19T11:38:36.708Z,7.03
2019-04-19T11:42:45.673Z,8.67
2019-04-19T11:46:54.499Z,8.83
2019-04-19T11:51:03.673Z,9.17
2019-04-19T11:55:12.773Z,6.50
2019-04-19T11:59:34.198Z,5.80
2019-04-19T12:03:34.159Z,7.30
2019-04-19T12:07:44.357Z,5.07
2019-04-19T12:11:53.925Z,5.17
2019-04-19T12:16:03.122Z,8.73
2019-04-19T12:20:13.159Z,11.33
2019-04-19T12:24:22.473Z,6.97
2019-04-19T12:28:31.326Z,7.20
2019-04-19T12:32:41.569Z,5.37
2019-04-19T12:36:50.999Z,6.60
2019-04-19T12:41:01.760Z,7.37
2019-04-19T12:45:13.267Z,6.93
2019-04-19T12:49:22.701Z,5.37
2019-04-19T12:53:32.763Z,8.70
2019-04-19T12:57:43.828Z,6.80
2019-04-19T13:02:03.928Z,6.23
2019-04-19T13:06:27.388Z,6.57
2019-04-19T13:10:36.098Z,7.50
2019-04-19T13:14:45.781Z,10.60
2019-04-19T13:18:56.190Z,5.67
2019-04-19T13:23:06.243Z,6.10
2019-04-19T13:27:14.912Z,8.57
2019-04-19T13:31:24.838Z,7.50
2019-04-19T13:35:35.220Z,5.93
2019-04-19T13:39:50.029Z,5.80
2019-04-19T13:43:58.724Z,5.70
2019-04-19T13:48:07.302Z,6.23
2019-04-19T13:52:16.640Z,5.80
2019-04-19T13:56:25.193Z,7.27
2019-04-19T14:00:44.710Z,5.47
2019-04-19T14:04:53.748Z,6.43
2019-04-19T14:09:03.041Z,5.73
2019-04-19T14:13:12.789Z,6.07
2019-04-19T14:17:22.038Z,7.10
2019-04-19T14:21:30.823Z,7.80
2019-04-19T14:25:39.450Z,6.97
2019-04-19T14:29:48.178Z,12.10
2019-04-19T14:33:57.135Z,6.60
2019-04-19T14:38:05.866Z,5.43
2019-04-19T14:42:14.410Z,6.12
2019-04-19T14:46:22.894Z,5.27
2019-04-19T14:50:44.888Z,6.10
2019-04-19T14:54:42.904Z,5.43
2019-04-19T14:58:51.655Z,5.73
2019-04-19T15:03:02.821Z,9.80
2019-04-19T15:07:12.362Z,5.30
2019-04-19T15:11:21.436Z,5.43
2019-04-19T15:15:31.292Z,5.23
2019-04-19T15:19:40.238Z,6.27
2019-04-19T15:23:50.132Z,4.70
2019-04-19T15:27:59.140Z,4.80
2019-04-19T15:32:08.387Z,5.10
2019-04-19T15:36:17.662Z,5.70
2019-04-19T15:40:26.346Z,5.73
2019-04-19T15:44:34.978Z,5.67
2019-04-19T15:48:47.629Z,5.10
2019-04-19T15:52:53.879Z,4.73
2019-04-19T15:57:02.611Z,5.30
2019-04-19T16:01:14.287Z,4.53
2019-04-19T16:05:24.629Z,5.80
2019-04-19T16:09:35.619Z,5.43
2019-04-19T16:13:44.279Z,4.93
2019-04-19T16:17:52.762Z,4.83
2019-04-19T16:22:03.635Z,5.80
2019-04-19T16:26:11.432Z,4.77
2019-04-19T16:30:20.654Z,4.70
2019-04-19T16:34:29.362Z,4.57
2019-04-19T16:38:38.270Z,4.70
2019-04-19T16:42:47.471Z,4.70
2019-04-19T16:46:57.148Z,4.70
2019-04-19T16:51:06.432Z,4.70
2019-04-19T16:55:15.804Z,5.90
2019-04-19T16:59:24.227Z,5.97
2019-04-19T17:03:32.967Z,4.97
2019-04-19T17:07:41.694Z,4.73
2019-04-19T17:11:51.522Z,4.60
2019-04-19T17:16:01.837Z,5.00
2019-04-19T17:20:15.097Z,5.50
2019-04-19T17:24:24.954Z,7.33
2019-04-19T17:28:34.880Z,4.50
2019-04-19T17:32:44.208Z,4.40
2019-04-19T17:36:53.846Z,5.40
2019-04-19T17:41:02.884Z,5.73
2019-04-19T17:45:11.665Z,6.60
2019-04-19T17:49:20.413Z,9.40
2019-04-19T17:53:37.212Z,4.80
2019-04-19T17:57:39.139Z,6.63
2019-04-19T18:01:48.378Z,6.30
2019-04-19T18:05:58.291Z,5.57
2019-04-19T18:10:12.975Z,4.90
2019-04-19T18:14:17.813Z,5.80
2019-04-19T18:18:31.820Z,7.15
2019-04-19T18:22:52.426Z,6.93
2019-04-19T18:26:46.888Z,7.60
2019-04-19T18:30:57.157Z,6.97
2019-04-19T18:35:15.021Z,6.90
2019-04-19T18:39:18.114Z,10.30
2019-04-19T18:43:37.621Z,6.40
2019-04-19T18:47:37.337Z,6.97
2019-04-19T18:51:48.696Z,6.30
2019-04-19T18:55:56.959Z,8.50
2019-04-19T19:00:10.413Z,9.00
2019-04-19T19:04:23.420Z,6.10
2019-04-19T19:08:31.411Z,5.40
2019-04-19T19:12:43.926Z,5.70
2019-04-19T19:16:52.758Z,6.43
2019-04-19T19:21:03.081Z,6.20
2019-04-19T19:25:28.675Z,6.57
2019-04-19T19:29:26.103Z,8.73
2019-04-19T19:33:41.880Z,6.33
2019-04-19T19:37:46.174Z,6.93
2019-04-19T19:46:44.070Z,6.37
2019-04-19T19:50:44.418Z,7.10
2019-04-19T19:54:54.106Z,6.23
2019-04-19T19:58:44.848Z,7.80
2019-04-19T20:03:00.540Z,8.80
2019-04-19T20:07:05.322Z,6.50
2019-04-19T20:11:17.558Z,10.50
2019-04-19T20:15:21.858Z,7.47
2019-04-19T20:19:33.001Z,10.50
2019-04-19T20:23:56.436Z,7.10
2019-04-19T20:27:54.979Z,7.40
2019-04-19T20:32:09.321Z,8.63
2019-04-19T20:36:12.947Z,6.83
2019-04-19T20:40:25.798Z,7.43
2019-04-19T20:44:46.436Z,8.57
2019-04-19T20:48:45.802Z,6.60
2019-04-19T20:53:08.531Z,7.43
2019-04-19T20:57:42.880Z,7.33
2019-04-19T21:01:38.930Z,6.63
2019-04-19T21:05:49.722Z,6.13
2019-04-19T21:10:05.362Z,7.60
2019-04-19T21:14:09.272Z,10.05
2019-04-19T21:18:22.625Z,7.20
2019-04-19T21:22:33.189Z,7.73
2019-04-19T21:26:39.463Z,6.70
2019-04-19T21:30:54.080Z,7.20
2019-04-19T21:35:01.081Z,6.90
2019-04-19T21:39:12.967Z,10.70
2019-04-19T21:43:23.371Z,10.07
2019-04-19T21:47:28.967Z,9.57
2019-04-19T21:51:39.244Z,7.47
2019-04-19T21:55:55.303Z,7.37
2019-04-19T21:59:57.856Z,8.50
2019-04-19T22:04:10.160Z,7.37
2019-04-19T22:08:39.777Z,10.93
2019-04-19T22:12:48.244Z,7.00
2019-04-19T22:16:56.786Z,7.90
2019-04-19T22:21:06.891Z,7.30
2019-04-19T22:25:32.359Z,7.83
2019-04-19T22:29:25.773Z,7.67
2019-04-19T22:33:34.519Z,9.80
2019-04-19T22:37:43.281Z,7.87
2019-04-19T22:41:52.856Z,9.47
2019-04-19T22:46:05.426Z,7.30
2019-04-19T22:50:19.319Z,12.67
2019-04-19T22:54:22.410Z,11.50
2019-04-19T22:58:33.402Z,10.37
2019-04-19T23:02:55.242Z,9.20
2019-04-19T23:07:07.990Z,9.20
2019-04-19T23:11:15.302Z,9.43
2019-04-19T23:15:43.852Z,8.50
2019-04-19T23:19:53.281Z,8.87
2019-04-19T23:24:07.092Z,7.97
2019-04-19T23:28:19.309Z,11.67
2019-04-19T23:32:28.623Z,14.50
2019-04-19T23:36:33.448Z,8.50
2019-04-19T23:40:42.995Z,9.30
2019-04-19T23:44:55.450Z,10.40
2019-04-19T23:49:08.676Z,11.27
2019-04-19T23:53:12.617Z,8.20
2019-04-19T23:57:26.131Z,7.50
